sensor_id;sensor_type;location;lat;lon;timestamp;pressure;altitude;pressure_sealevel;temperature;humidity
11621;BME280;5866;49.094;11.900;2023-03-25T00:01:41;95555.50;;;8.61;100.00
11621;BME280;5866;49.094;11.900;2023-03-25T00:04:08;95558.31;;;8.68;100.00
11621;BME280;5866;49.094;11.900;2023-03-25T00:06:36;95552.53;;;8.72;100.00
11621;BME280;5866;49.094;11.900;2023-03-25T00:09:04;95564.09;;;8.63;100.00
11621;BME280;5866;49.094;11.900;2023-03-25T00:11:31;95556.66;;;8.59;100.00
11621;BME280;5866;49.094;11.900;2023-03-25T00:13:59;95559.78;;;9.03;100.00
11621;BME280;5866;49.094;11.900;2023-03-25T00:16:26;95551.00;;;9.02;100.00
11621;BME280;5866;49.094;11.900;2023-03-25T00:18:55;95556.97;;;8.88;100.00
11621;BME280;5866;49.094;11.900;2023-03-25T00:21:25;95552.34;;;8.82;100.00
11621;BME280;5866;49.094;11.900;2023-03-25T00:23:52;95551.69;;;8.96;100.00
11621;BME280;5866;49.094;11.900;2023-03-25T00:26:21;95542.22;;;9.02;100.00
11621;BME280;5866;49.094;11.900;2023-03-25T00:28:48;95547.97;;;9.60;100.00
11621;BME280;5866;49.094;11.900;2023-03-25T00:31:16;95544.56;;;9.05;100.00
11621;BME280;5866;49.094;11.900;2023-03-25T00:33:43;95549.47;;;9.16;100.00
11621;BME280;5866;49.094;11.900;2023-03-25T00:36:12;95541.72;;;9.53;100.00
11621;BME280;5866;49.094;11.900;2023-03-25T00:38:40;95540.91;;;9.52;100.00
11621;BME280;5866;49.094;11.900;2023-03-25T00:41:10;95538.63;;;9.41;100.00
11621;BME280;5866;49.094;11.900;2023-03-25T00:43:38;95544.94;;;9.40;100.00
11621;BME280;5866;49.094;11.900;2023-03-25T00:46:06;95545.91;;;9.39;100.00
11621;BME280;5866;49.094;11.900;2023-03-25T00:48:34;95542.13;;;9.42;100.00
11621;BME280;5866;49.094;11.900;2023-03-25T00:51:02;95540.69;;;9.62;100.00
11621;BME280;5866;49.094;11.900;2023-03-25T00:53:36;95540.81;;;9.38;100.00
11621;BME280;5866;49.094;11.900;2023-03-25T00:56:05;95547.41;;;9.42;100.00
11621;BME280;5866;49.094;11.900;2023-03-25T00:58:32;95538.88;;;9.93;100.00
11621;BME280;5866;49.094;11.900;2023-03-25T01:01:07;95534.69;;;9.68;100.00
11621;BME280;5866;49.094;11.900;2023-03-25T01:03:36;95539.69;;;9.63;100.00
11621;BME280;5866;49.094;11.900;2023-03-25T01:06:08;95531.91;;;9.70;100.00
11621;BME280;5866;49.094;11.900;2023-03-25T01:08:38;95535.34;;;9.70;100.00
11621;BME280;5866;49.094;11.900;2023-03-25T01:11:13;95530.25;;;9.22;100.00
11621;BME280;5866;49.094;11.900;2023-03-25T01:13:42;95528.03;;;8.95;100.00
11621;BME280;5866;49.094;11.900;2023-03-25T01:16:10;95528.81;;;9.19;100.00
11621;BME280;5866;49.094;11.900;2023-03-25T01:18:37;95524.59;;;9.33;100.00
11621;BME280;5866;49.094;11.900;2023-03-25T01:21:06;95526.88;;;9.44;100.00
11621;BME280;5866;49.094;11.900;2023-03-25T01:23:34;95520.28;;;9.40;100.00
11621;BME280;5866;49.094;11.900;2023-03-25T01:26:03;95522.25;;;9.46;100.00
11621;BME280;5866;49.094;11.900;2023-03-25T01:28:30;95517.84;;;9.22;100.00
11621;BME280;5866;49.094;11.900;2023-03-25T01:31:01;95517.72;;;9.16;100.00
11621;BME280;5866;49.094;11.900;2023-03-25T01:33:30;95526.06;;;8.89;100.00
11621;BME280;5866;49.094;11.900;2023-03-25T01:35:57;95523.09;;;8.92;100.00
11621;BME280;5866;49.094;11.900;2023-03-25T01:38:25;95522.59;;;8.80;100.00
11621;BME280;5866;49.094;11.900;2023-03-25T01:40:53;95527.75;;;8.82;100.00
11621;BME280;5866;49.094;11.900;2023-03-25T01:43:22;95522.78;;;8.70;100.00
11621;BME280;5866;49.094;11.900;2023-03-25T01:45:50;95523.47;;;8.64;100.00
11621;BME280;5866;49.094;11.900;2023-03-25T01:48:21;95524.78;;;8.60;100.00
11621;BME280;5866;49.094;11.900;2023-03-25T01:50:53;95522.94;;;8.77;100.00
11621;BME280;5866;49.094;11.900;2023-03-25T01:53:22;95516.88;;;8.60;100.00
11621;BME280;5866;49.094;11.900;2023-03-25T01:55:51;95507.94;;;8.61;100.00
11621;BME280;5866;49.094;11.900;2023-03-25T01:58:20;95517.81;;;8.67;100.00
11621;BME280;5866;49.094;11.900;2023-03-25T02:00:53;95517.69;;;8.37;100.00
11621;BME280;5866;49.094;11.900;2023-03-25T02:03:22;95506.97;;;8.54;100.00
11621;BME280;5866;49.094;11.900;2023-03-25T02:05:54;95505.28;;;8.61;100.00
11621;BME280;5866;49.094;11.900;2023-03-25T02:08:24;95500.34;;;8.66;100.00
11621;BME280;5866;49.094;11.900;2023-03-25T02:10:52;95503.63;;;8.68;100.00
11621;BME280;5866;49.094;11.900;2023-03-25T02:13:20;95501.66;;;8.70;100.00
11621;BME280;5866;49.094;11.900;2023-03-25T02:16:05;95502.09;;;8.90;100.00
11621;BME280;5866;49.094;11.900;2023-03-25T02:18:41;95494.97;;;8.91;100.00
11621;BME280;5866;49.094;11.900;2023-03-25T02:21:43;95491.56;;;8.74;100.00
11621;BME280;5866;49.094;11.900;2023-03-25T02:24:43;95496.66;;;8.84;100.00
11621;BME280;5866;49.094;11.900;2023-03-25T02:27:28;95501.97;;;8.84;100.00
11621;BME280;5866;49.094;11.900;2023-03-25T02:30:26;95493.47;;;9.04;100.00
11621;BME280;5866;49.094;11.900;2023-03-25T02:36:21;95493.22;;;9.30;100.00
11621;BME280;5866;49.094;11.900;2023-03-25T02:38:59;95491.63;;;9.43;100.00
11621;BME280;5866;49.094;11.900;2023-03-25T02:41:35;95496.22;;;9.19;100.00
11621;BME280;5866;49.094;11.900;2023-03-25T02:44:10;95491.94;;;9.10;100.00
11621;BME280;5866;49.094;11.900;2023-03-25T02:46:46;95487.59;;;8.70;100.00
11621;BME280;5866;49.094;11.900;2023-03-25T02:49:20;95498.00;;;8.71;100.00
11621;BME280;5866;49.094;11.900;2023-03-25T02:51:52;95496.84;;;8.66;100.00
11621;BME280;5866;49.094;11.900;2023-03-25T02:54:25;95489.13;;;8.56;100.00
11621;BME280;5866;49.094;11.900;2023-03-25T02:56:54;95497.34;;;8.61;100.00
11621;BME280;5866;49.094;11.900;2023-03-25T02:59:25;95496.69;;;8.67;100.00
11621;BME280;5866;49.094;11.900;2023-03-25T03:01:59;95491.09;;;8.38;100.00
11621;BME280;5866;49.094;11.900;2023-03-25T03:04:29;95498.03;;;8.47;100.00
11621;BME280;5866;49.094;11.900;2023-03-25T03:06:56;95498.84;;;8.56;100.00
11621;BME280;5866;49.094;11.900;2023-03-25T03:09:31;95487.97;;;8.35;100.00
11621;BME280;5866;49.094;11.900;2023-03-25T03:12:12;95494.91;;;8.36;100.00
11621;BME280;5866;49.094;11.900;2023-03-25T03:14:55;95491.94;;;8.39;100.00
11621;BME280;5866;49.094;11.900;2023-03-25T03:17:32;95483.34;;;8.37;100.00
11621;BME280;5866;49.094;11.900;2023-03-25T03:20:12;95480.88;;;8.43;100.00
11621;BME280;5866;49.094;11.900;2023-03-25T03:22:47;95475.16;;;8.87;100.00
11621;BME280;5866;49.094;11.900;2023-03-25T03:25:26;95469.69;;;8.88;100.00
11621;BME280;5866;49.094;11.900;2023-03-25T03:27:59;95469.56;;;8.73;100.00
11621;BME280;5866;49.094;11.900;2023-03-25T03:30:32;95474.25;;;8.47;100.00
11621;BME280;5866;49.094;11.900;2023-03-25T03:33:07;95463.00;;;8.53;100.00
11621;BME280;5866;49.094;11.900;2023-03-25T03:35:42;95466.97;;;8.57;100.00
11621;BME280;5866;49.094;11.900;2023-03-25T03:38:16;95461.66;;;8.65;100.00
11621;BME280;5866;49.094;11.900;2023-03-25T03:40:50;95469.63;;;8.49;100.00
11621;BME280;5866;49.094;11.900;2023-03-25T03:43:23;95474.44;;;8.46;100.00
11621;BME280;5866;49.094;11.900;2023-03-25T03:45:56;95475.91;;;8.16;100.00
11621;BME280;5866;49.094;11.900;2023-03-25T03:48:28;95483.69;;;8.50;100.00
11621;BME280;5866;49.094;11.900;2023-03-25T03:51:01;95489.78;;;8.50;100.00
11621;BME280;5866;49.094;11.900;2023-03-25T03:53:32;95487.31;;;8.33;100.00
11621;BME280;5866;49.094;11.900;2023-03-25T03:56:06;95490.63;;;8.35;100.00
11621;BME280;5866;49.094;11.900;2023-03-25T03:58:38;95491.13;;;8.30;100.00
11621;BME280;5866;49.094;11.900;2023-03-25T04:01:10;95488.97;;;8.50;100.00
11621;BME280;5866;49.094;11.900;2023-03-25T04:03:42;95481.03;;;8.26;100.00
11621;BME280;5866;49.094;11.900;2023-03-25T04:06:18;95487.16;;;8.26;100.00
11621;BME280;5866;49.094;11.900;2023-03-25T04:08:53;95492.41;;;8.42;100.00
11621;BME280;5866;49.094;11.900;2023-03-25T04:11:27;95484.47;;;7.94;100.00
11621;BME280;5866;49.094;11.900;2023-03-25T04:13:58;95481.19;;;8.16;100.00
11621;BME280;5866;49.094;11.900;2023-03-25T04:16:27;95485.50;;;8.49;100.00
11621;BME280;5866;49.094;11.900;2023-03-25T04:18:54;95480.34;;;8.24;100.00
11621;BME280;5866;49.094;11.900;2023-03-25T04:21:23;95476.22;;;8.05;100.00
11621;BME280;5866;49.094;11.900;2023-03-25T04:23:51;95473.44;;;8.15;100.00
11621;BME280;5866;49.094;11.900;2023-03-25T04:26:18;95470.63;;;8.00;100.00
11621;BME280;5866;49.094;11.900;2023-03-25T04:28:48;95478.22;;;7.87;100.00
11621;BME280;5866;49.094;11.900;2023-03-25T04:31:16;95465.66;;;7.97;100.00
11621;BME280;5866;49.094;11.900;2023-03-25T04:33:44;95480.19;;;8.09;100.00
11621;BME280;5866;49.094;11.900;2023-03-25T04:36:14;95486.97;;;7.95;100.00
11621;BME280;5866;49.094;11.900;2023-03-25T04:38:43;95481.81;;;7.94;100.00
11621;BME280;5866;49.094;11.900;2023-03-25T04:41:11;95490.09;;;8.07;100.00
11621;BME280;5866;49.094;11.900;2023-03-25T04:43:40;95476.38;;;8.20;100.00
11621;BME280;5866;49.094;11.900;2023-03-25T04:46:13;95477.22;;;8.20;100.00
11621;BME280;5866;49.094;11.900;2023-03-25T04:48:41;95479.22;;;8.18;100.00
11621;BME280;5866;49.094;11.900;2023-03-25T04:51:11;95481.84;;;8.02;100.00
11621;BME280;5866;49.094;11.900;2023-03-25T04:53:39;95480.38;;;8.08;100.00
11621;BME280;5866;49.094;11.900;2023-03-25T04:56:11;95476.88;;;7.99;100.00
11621;BME280;5866;49.094;11.900;2023-03-25T04:58:41;95472.09;;;8.11;100.00
11621;BME280;5866;49.094;11.900;2023-03-25T05:01:19;95473.28;;;8.08;100.00
11621;BME280;5866;49.094;11.900;2023-03-25T05:03:48;95467.31;;;8.14;100.00
11621;BME280;5866;49.094;11.900;2023-03-25T05:06:16;95467.47;;;8.04;100.00
11621;BME280;5866;49.094;11.900;2023-03-25T05:08:44;95472.75;;;8.04;100.00
11621;BME280;5866;49.094;11.900;2023-03-25T05:11:11;95470.78;;;8.07;100.00
11621;BME280;5866;49.094;11.900;2023-03-25T05:13:39;95475.91;;;8.00;100.00
11621;BME280;5866;49.094;11.900;2023-03-25T05:16:06;95479.69;;;8.06;100.00
11621;BME280;5866;49.094;11.900;2023-03-25T05:18:35;95477.72;;;7.91;100.00
11621;BME280;5866;49.094;11.900;2023-03-25T05:21:03;95476.28;;;8.29;100.00
11621;BME280;5866;49.094;11.900;2023-03-25T05:23:30;95492.44;;;8.26;100.00
11621;BME280;5866;49.094;11.900;2023-03-25T05:25:58;95486.47;;;8.16;100.00
11621;BME280;5866;49.094;11.900;2023-03-25T05:28:26;95484.13;;;8.21;100.00
11621;BME280;5866;49.094;11.900;2023-03-25T05:30:54;95485.81;;;8.46;100.00
11621;BME280;5866;49.094;11.900;2023-03-25T05:33:21;95494.91;;;8.44;100.00
11621;BME280;5866;49.094;11.900;2023-03-25T05:35:50;95500.66;;;8.79;100.00
11621;BME280;5866;49.094;11.900;2023-03-25T05:38:18;95507.25;;;8.84;100.00
11621;BME280;5866;49.094;11.900;2023-03-25T05:40:46;95521.97;;;8.70;100.00
11621;BME280;5866;49.094;11.900;2023-03-25T05:43:14;95521.34;;;8.44;100.00
11621;BME280;5866;49.094;11.900;2023-03-25T05:45:42;95528.09;;;8.46;100.00
11621;BME280;5866;49.094;11.900;2023-03-25T05:48:12;95545.38;;;8.00;100.00
11621;BME280;5866;49.094;11.900;2023-03-25T05:50:39;95541.28;;;8.14;100.00
11621;BME280;5866;49.094;11.900;2023-03-25T05:53:09;95540.25;;;7.91;100.00
11621;BME280;5866;49.094;11.900;2023-03-25T05:55:38;95541.09;;;8.16;100.00
11621;BME280;5866;49.094;11.900;2023-03-25T05:58:05;95547.44;;;8.31;100.00
11621;BME280;5866;49.094;11.900;2023-03-25T06:00:33;95543.44;;;8.51;100.00
11621;BME280;5866;49.094;11.900;2023-03-25T06:03:05;95549.19;;;8.06;100.00
11621;BME280;5866;49.094;11.900;2023-03-25T06:05:33;95541.66;;;8.43;100.00
11621;BME280;5866;49.094;11.900;2023-03-25T06:08:01;95555.53;;;8.29;100.00
11621;BME280;5866;49.094;11.900;2023-03-25T06:10:30;95559.78;;;8.22;100.00
11621;BME280;5866;49.094;11.900;2023-03-25T06:12:58;95554.13;;;7.93;100.00
11621;BME280;5866;49.094;11.900;2023-03-25T06:15:26;95555.72;;;7.78;100.00
11621;BME280;5866;49.094;11.900;2023-03-25T06:17:59;95565.16;;;7.80;100.00
11621;BME280;5866;49.094;11.900;2023-03-25T06:20:27;95575.94;;;8.11;100.00
11621;BME280;5866;49.094;11.900;2023-03-25T06:22:54;95575.56;;;7.90;100.00
11621;BME280;5866;49.094;11.900;2023-03-25T06:25:22;95575.91;;;8.03;100.00
11621;BME280;5866;49.094;11.900;2023-03-25T06:27:53;95576.16;;;8.26;100.00
11621;BME280;5866;49.094;11.900;2023-03-25T06:30:23;95582.44;;;8.41;100.00
11621;BME280;5866;49.094;11.900;2023-03-25T06:32:50;95579.91;;;8.23;100.00
11621;BME280;5866;49.094;11.900;2023-03-25T06:35:21;95578.91;;;8.08;100.00
11621;BME280;5866;49.094;11.900;2023-03-25T06:37:48;95576.50;;;8.31;100.00
11621;BME280;5866;49.094;11.900;2023-03-25T06:40:16;95572.44;;;7.94;100.00
11621;BME280;5866;49.094;11.900;2023-03-25T06:42:43;95588.00;;;8.22;100.00
11621;BME280;5866;49.094;11.900;2023-03-25T06:45:12;95581.28;;;8.43;100.00
11621;BME280;5866;49.094;11.900;2023-03-25T06:47:41;95586.56;;;8.67;100.00
11621;BME280;5866;49.094;11.900;2023-03-25T06:50:09;95572.69;;;8.65;100.00
11621;BME280;5866;49.094;11.900;2023-03-25T06:52:37;95591.13;;;9.14;100.00
11621;BME280;5866;49.094;11.900;2023-03-25T06:55:05;95577.59;;;9.01;100.00
11621;BME280;5866;49.094;11.900;2023-03-25T06:57:32;95589.03;;;8.61;100.00
11621;BME280;5866;49.094;11.900;2023-03-25T07:00:01;95589.53;;;8.48;100.00
11621;BME280;5866;49.094;11.900;2023-03-25T07:02:32;95579.38;;;7.95;100.00
11621;BME280;5866;49.094;11.900;2023-03-25T07:04:59;95585.19;;;8.15;100.00
11621;BME280;5866;49.094;11.900;2023-03-25T07:07:27;95589.22;;;8.43;100.00
11621;BME280;5866;49.094;11.900;2023-03-25T07:09:55;95592.69;;;8.92;100.00
11621;BME280;5866;49.094;11.900;2023-03-25T07:12:22;95590.25;;;9.37;100.00
11621;BME280;5866;49.094;11.900;2023-03-25T07:14:50;95587.50;;;9.61;100.00
11621;BME280;5866;49.094;11.900;2023-03-25T07:17:18;95589.03;;;9.56;100.00
11621;BME280;5866;49.094;11.900;2023-03-25T07:19:47;95591.94;;;9.77;100.00
11621;BME280;5866;49.094;11.900;2023-03-25T07:22:15;95587.09;;;10.19;97.64
11621;BME280;5866;49.094;11.900;2023-03-25T07:24:43;95588.31;;;10.77;95.95
11621;BME280;5866;49.094;11.900;2023-03-25T07:27:11;95582.53;;;11.77;84.27
11621;BME280;5866;49.094;11.900;2023-03-25T07:29:39;95571.63;;;12.64;75.31
11621;BME280;5866;49.094;11.900;2023-03-25T07:32:07;95575.53;;;13.38;69.39
11621;BME280;5866;49.094;11.900;2023-03-25T07:34:34;95579.47;;;12.94;69.04
11621;BME280;5866;49.094;11.900;2023-03-25T07:37:04;95576.84;;;13.21;65.16
11621;BME280;5866;49.094;11.900;2023-03-25T07:39:33;95583.59;;;13.51;67.40
11621;BME280;5866;49.094;11.900;2023-03-25T07:42:01;95579.13;;;13.03;68.55
11621;BME280;5866;49.094;11.900;2023-03-25T07:44:28;95587.88;;;11.40;73.51
11621;BME280;5866;49.094;11.900;2023-03-25T07:46:56;95591.16;;;11.12;78.55
11621;BME280;5866;49.094;11.900;2023-03-25T07:49:23;95588.09;;;10.86;78.56
11621;BME280;5866;49.094;11.900;2023-03-25T07:51:51;95597.00;;;10.71;81.41
11621;BME280;5866;49.094;11.900;2023-03-25T07:54:20;95599.84;;;10.47;82.99
11621;BME280;5866;49.094;11.900;2023-03-25T07:56:49;95607.25;;;10.74;85.93
11621;BME280;5866;49.094;11.900;2023-03-25T07:59:18;95604.53;;;10.82;82.99
11621;BME280;5866;49.094;11.900;2023-03-25T08:01:45;95604.50;;;10.14;85.31
11621;BME280;5866;49.094;11.900;2023-03-25T08:04:13;95611.22;;;10.24;86.29
11621;BME280;5866;49.094;11.900;2023-03-25T08:06:40;95604.44;;;10.53;84.38
11621;BME280;5866;49.094;11.900;2023-03-25T08:09:08;95598.63;;;10.26;85.41
11621;BME280;5866;49.094;11.900;2023-03-25T08:11:37;95604.72;;;10.04;83.93
11621;BME280;5866;49.094;11.900;2023-03-25T08:14:05;95613.41;;;10.21;87.60
11621;BME280;5866;49.094;11.900;2023-03-25T08:16:32;95608.19;;;10.35;87.06
11621;BME280;5866;49.094;11.900;2023-03-25T08:19:00;95609.59;;;9.93;85.06
11621;BME280;5866;49.094;11.900;2023-03-25T08:21:27;95605.78;;;9.87;87.23
11621;BME280;5866;49.094;11.900;2023-03-25T08:23:56;95605.84;;;9.71;86.07
11621;BME280;5866;49.094;11.900;2023-03-25T08:26:28;95611.69;;;9.97;89.97
11621;BME280;5866;49.094;11.900;2023-03-25T08:28:58;95605.59;;;10.27;86.69
11621;BME280;5866;49.094;11.900;2023-03-25T08:31:29;95592.72;;;10.70;82.87
11621;BME280;5866;49.094;11.900;2023-03-25T08:34:01;95598.16;;;10.68;80.26
11621;BME280;5866;49.094;11.900;2023-03-25T08:36:28;95598.16;;;10.68;80.11
11621;BME280;5866;49.094;11.900;2023-03-25T08:38:56;95608.91;;;10.75;80.66
11621;BME280;5866;49.094;11.900;2023-03-25T08:41:24;95592.25;;;11.03;76.88
11621;BME280;5866;49.094;11.900;2023-03-25T08:43:51;95603.25;;;10.32;80.17
11621;BME280;5866;49.094;11.900;2023-03-25T08:46:20;95598.00;;;10.70;78.25
11621;BME280;5866;49.094;11.900;2023-03-25T08:48:48;95596.16;;;10.48;80.28
11621;BME280;5866;49.094;11.900;2023-03-25T08:51:16;95589.97;;;11.15;76.12
11621;BME280;5866;49.094;11.900;2023-03-25T08:53:44;95590.91;;;11.37;71.91
11621;BME280;5866;49.094;11.900;2023-03-25T08:56:11;95583.50;;;11.61;71.19
11621;BME280;5866;49.094;11.900;2023-03-25T08:58:39;95590.00;;;11.88;67.64
11621;BME280;5866;49.094;11.900;2023-03-25T09:01:07;95571.75;;;10.75;69.35
11621;BME280;5866;49.094;11.900;2023-03-25T09:03:35;95585.56;;;10.48;69.96
11621;BME280;5866;49.094;11.900;2023-03-25T09:06:04;95597.72;;;10.42;75.11
11621;BME280;5866;49.094;11.900;2023-03-25T09:08:32;95582.63;;;10.20;74.18
11621;BME280;5866;49.094;11.900;2023-03-25T09:11:00;95594.41;;;10.63;74.29
11621;BME280;5866;49.094;11.900;2023-03-25T09:13:27;95581.53;;;10.97;72.62
11621;BME280;5866;49.094;11.900;2023-03-25T09:15:56;95577.97;;;11.19;73.58
11621;BME280;5866;49.094;11.900;2023-03-25T09:18:24;95581.84;;;11.46;75.04
11621;BME280;5866;49.094;11.900;2023-03-25T09:20:57;95591.81;;;11.29;76.41
11621;BME280;5866;49.094;11.900;2023-03-25T09:23:24;95584.59;;;11.38;74.72
11621;BME280;5866;49.094;11.900;2023-03-25T09:25:52;95591.38;;;11.84;73.33
11621;BME280;5866;49.094;11.900;2023-03-25T09:28:19;95586.25;;;12.33;70.56
11621;BME280;5866;49.094;11.900;2023-03-25T09:30:47;95586.00;;;12.49;68.58
11621;BME280;5866;49.094;11.900;2023-03-25T09:33:14;95574.72;;;12.68;64.34
11621;BME280;5866;49.094;11.900;2023-03-25T09:35:42;95579.53;;;12.37;62.47
11621;BME280;5866;49.094;11.900;2023-03-25T09:38:11;95579.72;;;12.00;68.39
11621;BME280;5866;49.094;11.900;2023-03-25T09:40:39;95577.84;;;10.98;71.69
11621;BME280;5866;49.094;11.900;2023-03-25T09:43:20;95566.44;;;10.75;70.91
11621;BME280;5866;49.094;11.900;2023-03-25T09:45:52;95579.91;;;10.73;76.65
11621;BME280;5866;49.094;11.900;2023-03-25T09:48:27;95586.00;;;10.96;75.49
11621;BME280;5866;49.094;11.900;2023-03-25T09:50:59;95577.16;;;11.33;71.08
11621;BME280;5866;49.094;11.900;2023-03-25T09:53:35;95576.22;;;12.14;70.77
11621;BME280;5866;49.094;11.900;2023-03-25T09:56:08;95563.09;;;12.48;65.45
11621;BME280;5866;49.094;11.900;2023-03-25T09:58:40;95568.78;;;12.45;63.13
11621;BME280;5866;49.094;11.900;2023-03-25T10:01:18;95571.13;;;11.98;65.69
11621;BME280;5866;49.094;11.900;2023-03-25T10:04:01;95565.34;;;12.30;64.56
11621;BME280;5866;49.094;11.900;2023-03-25T10:06:31;95570.53;;;12.17;64.18
11621;BME280;5866;49.094;11.900;2023-03-25T10:09:19;95569.47;;;11.09;66.04
11621;BME280;5866;49.094;11.900;2023-03-25T10:11:56;95567.38;;;11.63;64.34
11621;BME280;5866;49.094;11.900;2023-03-25T10:14:34;95556.75;;;13.46;57.85
11621;BME280;5866;49.094;11.900;2023-03-25T10:17:11;95554.03;;;14.28;55.93
11621;BME280;5866;49.094;11.900;2023-03-25T10:19:53;95552.72;;;15.24;56.38
11621;BME280;5866;49.094;11.900;2023-03-25T10:22:27;95545.34;;;15.96;52.00
11621;BME280;5866;49.094;11.900;2023-03-25T10:25:01;95553.31;;;15.06;51.84
11621;BME280;5866;49.094;11.900;2023-03-25T10:27:33;95539.69;;;14.36;54.18
11621;BME280;5866;49.094;11.900;2023-03-25T10:30:09;95536.47;;;13.93;56.96
11621;BME280;5866;49.094;11.900;2023-03-25T10:32:41;95548.53;;;13.82;58.18
11621;BME280;5866;49.094;11.900;2023-03-25T10:35:11;95544.88;;;13.55;61.83
11621;BME280;5866;49.094;11.900;2023-03-25T10:37:42;95542.81;;;13.92;57.63
11621;BME280;5866;49.094;11.900;2023-03-25T10:40:16;95518.75;;;13.79;55.62
11621;BME280;5866;49.094;11.900;2023-03-25T10:42:56;95539.16;;;14.06;56.85
11621;BME280;5866;49.094;11.900;2023-03-25T10:45:27;95527.44;;;14.67;54.22
11621;BME280;5866;49.094;11.900;2023-03-25T10:48:01;95516.53;;;14.62;52.93
11621;BME280;5866;49.094;11.900;2023-03-25T10:50:31;95508.69;;;13.68;54.23
11621;BME280;5866;49.094;11.900;2023-03-25T10:52:59;95528.59;;;13.37;58.36
11621;BME280;5866;49.094;11.900;2023-03-25T10:55:31;95529.38;;;14.19;55.70
11621;BME280;5866;49.094;11.900;2023-03-25T10:58:00;95529.09;;;13.95;56.70
11621;BME280;5866;49.094;11.900;2023-03-25T11:00:28;95534.41;;;13.88;55.08
11621;BME280;5866;49.094;11.900;2023-03-25T11:02:56;95535.69;;;12.96;56.89
11621;BME280;5866;49.094;11.900;2023-03-25T11:05:26;95541.28;;;12.59;60.21
11621;BME280;5866;49.094;11.900;2023-03-25T11:07:57;95536.09;;;12.30;60.61
11621;BME280;5866;49.094;11.900;2023-03-25T11:10:38;95532.56;;;12.23;64.66
11621;BME280;5866;49.094;11.900;2023-03-25T11:13:10;95539.50;;;12.45;62.31
11621;BME280;5866;49.094;11.900;2023-03-25T11:15:40;95529.03;;;12.01;69.02
11621;BME280;5866;49.094;11.900;2023-03-25T11:18:13;95519.59;;;11.98;72.38
11621;BME280;5866;49.094;11.900;2023-03-25T11:20:46;95521.94;;;11.87;76.17
11621;BME280;5866;49.094;11.900;2023-03-25T11:23:20;95520.44;;;11.99;71.01
11621;BME280;5866;49.094;11.900;2023-03-25T11:25:51;95522.13;;;12.07;75.22
11621;BME280;5866;49.094;11.900;2023-03-25T11:28:23;95509.13;;;12.33;69.61
11621;BME280;5866;49.094;11.900;2023-03-25T11:31:08;95508.16;;;12.40;67.88
11621;BME280;5866;49.094;11.900;2023-03-25T11:33:37;95494.88;;;12.40;68.30
11621;BME280;5866;49.094;11.900;2023-03-25T11:36:26;95509.88;;;11.70;72.49
11621;BME280;5866;49.094;11.900;2023-03-25T11:38:58;95516.28;;;11.02;77.24
11621;BME280;5866;49.094;11.900;2023-03-25T11:41:29;95529.91;;;10.85;91.49
11621;BME280;5866;49.094;11.900;2023-03-25T11:43:58;95527.38;;;10.69;95.26
11621;BME280;5866;49.094;11.900;2023-03-25T11:46:25;95556.19;;;10.34;100.00
11621;BME280;5866;49.094;11.900;2023-03-25T11:48:53;95538.94;;;10.38;100.00
11621;BME280;5866;49.094;11.900;2023-03-25T11:51:22;95547.53;;;10.41;100.00
11621;BME280;5866;49.094;11.900;2023-03-25T11:53:55;95540.88;;;10.82;100.00
11621;BME280;5866;49.094;11.900;2023-03-25T11:56:31;95545.66;;;10.86;100.00
11621;BME280;5866;49.094;11.900;2023-03-25T11:59:00;95542.38;;;11.28;100.00
11621;BME280;5866;49.094;11.900;2023-03-25T12:01:36;95525.16;;;10.95;100.00
11621;BME280;5866;49.094;11.900;2023-03-25T12:04:11;95513.34;;;11.56;97.16
11621;BME280;5866;49.094;11.900;2023-03-25T12:06:52;95514.50;;;12.60;86.00
11621;BME280;5866;49.094;11.900;2023-03-25T12:09:20;95508.31;;;13.36;79.54
11621;BME280;5866;49.094;11.900;2023-03-25T12:11:56;95504.59;;;13.72;74.60
11621;BME280;5866;49.094;11.900;2023-03-25T12:14:35;95500.47;;;13.63;78.28
11621;BME280;5866;49.094;11.900;2023-03-25T12:17:13;95497.34;;;14.13;71.21
11621;BME280;5866;49.094;11.900;2023-03-25T12:19:50;95485.41;;;13.42;69.95
11621;BME280;5866;49.094;11.900;2023-03-25T12:22:34;95484.66;;;13.20;70.85
11621;BME280;5866;49.094;11.900;2023-03-25T12:25:23;95485.72;;;12.98;73.18
11621;BME280;5866;49.094;11.900;2023-03-25T12:28:07;95485.03;;;13.51;70.77
11621;BME280;5866;49.094;11.900;2023-03-25T12:30:48;95466.56;;;14.10;66.05
11621;BME280;5866;49.094;11.900;2023-03-25T12:33:28;95461.31;;;14.56;64.48
11621;BME280;5866;49.094;11.900;2023-03-25T12:36:16;95453.75;;;14.53;64.71
11621;BME280;5866;49.094;11.900;2023-03-25T12:38:56;95447.22;;;12.94;67.51
11621;BME280;5866;49.094;11.900;2023-03-25T12:41:30;95454.03;;;11.84;75.92
11621;BME280;5866;49.094;11.900;2023-03-25T12:44:06;95458.16;;;11.37;81.25
11621;BME280;5866;49.094;11.900;2023-03-25T12:46:50;95444.41;;;11.48;80.07
11621;BME280;5866;49.094;11.900;2023-03-25T12:49:30;95453.19;;;11.48;93.68
11621;BME280;5866;49.094;11.900;2023-03-25T12:52:10;95469.88;;;10.69;100.00
11621;BME280;5866;49.094;11.900;2023-03-25T12:54:51;95487.88;;;9.91;100.00
11621;BME280;5866;49.094;11.900;2023-03-25T12:57:35;95491.31;;;9.00;100.00
11621;BME280;5866;49.094;11.900;2023-03-25T13:00:27;95504.91;;;8.89;100.00
11621;BME280;5866;49.094;11.900;2023-03-25T13:03:15;95508.69;;;8.86;100.00
11621;BME280;5866;49.094;11.900;2023-03-25T13:05:52;95517.94;;;8.98;100.00
11621;BME280;5866;49.094;11.900;2023-03-25T13:08:24;95514.13;;;9.01;100.00
11621;BME280;5866;49.094;11.900;2023-03-25T13:10:56;95504.81;;;9.21;100.00
11621;BME280;5866;49.094;11.900;2023-03-25T13:13:25;95499.81;;;9.34;100.00
11621;BME280;5866;49.094;11.900;2023-03-25T13:16:02;95495.56;;;9.17;100.00
11621;BME280;5866;49.094;11.900;2023-03-25T13:18:33;95479.53;;;10.02;100.00
11621;BME280;5866;49.094;11.900;2023-03-25T13:21:06;95474.19;;;11.43;100.00
11621;BME280;5866;49.094;11.900;2023-03-25T13:23:41;95462.38;;;11.81;100.00
11621;BME280;5866;49.094;11.900;2023-03-25T13:26:11;95466.28;;;11.64;100.00